sensor_id;sensor_type;location;lat;lon;timestamp;pressure;altitude;pressure_sealevel;temperature;humidity
44457;BME280;30159;49.316;8.558;2024-03-29T00:00:52;98607.81;;;8.16;85.08
44457;BME280;30159;49.316;8.558;2024-03-29T00:03:18;98590.44;;;8.14;84.26
44457;BME280;30159;49.316;8.558;2024-03-29T00:05:44;98572.13;;;8.16;83.34
44457;BME280;30159;49.316;8.558;2024-03-29T00:08:10;98577.69;;;8.28;83.00
44457;BME280;30159;49.316;8.558;2024-03-29T00:10:36;98568.66;;;8.24;81.69
44457;BME280;30159;49.316;8.558;2024-03-29T00:13:01;98566.81;;;8.33;80.95
44457;BME280;30159;49.316;8.558;2024-03-29T00:15:27;98557.84;;;8.38;81.30
44457;BME280;30159;49.316;8.558;2024-03-29T00:17:54;98523.31;;;8.22;80.06
44457;BME280;30159;49.316;8.558;2024-03-29T00:20:20;98529.28;;;8.42;80.63
44457;BME280;30159;49.316;8.558;2024-03-29T00:22:46;98534.78;;;8.37;80.58
44457;BME280;30159;49.316;8.558;2024-03-29T00:25:12;98544.78;;;8.45;80.77
44457;BME280;30159;49.316;8.558;2024-03-29T00:27:37;98552.34;;;8.43;80.66
44457;BME280;30159;49.316;8.558;2024-03-29T00:30:04;98555.50;;;8.45;80.33
44457;BME280;30159;49.316;8.558;2024-03-29T00:32:29;98553.31;;;8.47;80.02
44457;BME280;30159;49.316;8.558;2024-03-29T00:34:56;98533.88;;;8.50;80.66
44457;BME280;30159;49.316;8.558;2024-03-29T00:37:22;98534.16;;;8.40;78.76
44457;BME280;30159;49.316;8.558;2024-03-29T00:39:48;98531.19;;;8.41;79.41
44457;BME280;30159;49.316;8.558;2024-03-29T00:42:13;98354.94;;;7.26;78.60
44457;BME280;30159;49.316;8.558;2024-03-29T00:44:39;98543.97;;;8.44;79.27
44457;BME280;30159;49.316;8.558;2024-03-29T00:47:05;98512.31;;;8.33;78.54
44457;BME280;30159;49.316;8.558;2024-03-29T00:49:31;98522.53;;;8.53;79.32
44457;BME280;30159;49.316;8.558;2024-03-29T00:51:58;98531.41;;;8.71;78.77
44457;BME280;30159;49.316;8.558;2024-03-29T00:54:24;98524.47;;;8.70;78.42
44457;BME280;30159;49.316;8.558;2024-03-29T00:56:49;98519.88;;;8.71;77.96
44457;BME280;30159;49.316;8.558;2024-03-29T00:59:15;98494.56;;;8.72;77.78
44457;BME280;30159;49.316;8.558;2024-03-29T01:01:41;98500.41;;;8.74;77.18
44457;BME280;30159;49.316;8.558;2024-03-29T01:04:07;98498.53;;;8.74;76.88
44457;BME280;30159;49.316;8.558;2024-03-29T01:06:32;98494.41;;;8.85;76.58
44457;BME280;30159;49.316;8.558;2024-03-29T01:08:59;98484.31;;;8.91;75.98
44457;BME280;30159;49.316;8.558;2024-03-29T01:11:25;98488.56;;;8.75;75.59
44457;BME280;30159;49.316;8.558;2024-03-29T01:13:51;98496.50;;;8.89;76.49
44457;BME280;30159;49.316;8.558;2024-03-29T01:16:17;98489.22;;;8.89;75.78
44457;BME280;30159;49.316;8.558;2024-03-29T01:18:42;98479.59;;;8.88;75.82
44457;BME280;30159;49.316;8.558;2024-03-29T01:21:08;98470.41;;;8.89;75.03
44457;BME280;30159;49.316;8.558;2024-03-29T01:23:34;98467.06;;;8.92;75.61
44457;BME280;30159;49.316;8.558;2024-03-29T01:26:01;98495.06;;;9.08;75.22
44457;BME280;30159;49.316;8.558;2024-03-29T01:28:27;98489.09;;;9.12;75.60
44457;BME280;30159;49.316;8.558;2024-03-29T01:30:52;98476.88;;;9.05;75.72
44457;BME280;30159;49.316;8.558;2024-03-29T01:33:18;98472.75;;;8.99;75.39
44457;BME280;30159;49.316;8.558;2024-03-29T01:35:44;98443.03;;;8.96;75.95
44457;BME280;30159;49.316;8.558;2024-03-29T01:38:10;98413.16;;;8.71;75.05
44457;BME280;30159;49.316;8.558;2024-03-29T01:40:35;98425.19;;;9.00;75.10
44457;BME280;30159;49.316;8.558;2024-03-29T01:43:03;98404.78;;;8.73;74.94
44457;BME280;30159;49.316;8.558;2024-03-29T01:45:29;98448.44;;;9.04;74.92
44457;BME280;30159;49.316;8.558;2024-03-29T01:47:57;98460.44;;;9.07;73.79
44457;BME280;30159;49.316;8.558;2024-03-29T01:50:23;98449.53;;;9.12;73.99
44457;BME280;30159;49.316;8.558;2024-03-29T01:52:50;98446.84;;;9.03;74.05
44457;BME280;30159;49.316;8.558;2024-03-29T01:55:17;98448.91;;;8.98;73.81
44457;BME280;30159;49.316;8.558;2024-03-29T01:57:44;98488.91;;;9.17;74.17
44457;BME280;30159;49.316;8.558;2024-03-29T02:00:13;98485.41;;;9.25;74.23
44457;BME280;30159;49.316;8.558;2024-03-29T02:02:40;98481.16;;;9.24;74.53
44457;BME280;30159;49.316;8.558;2024-03-29T02:05:07;98479.25;;;9.33;74.38
44457;BME280;30159;49.316;8.558;2024-03-29T02:07:34;98476.69;;;9.37;73.53
44457;BME280;30159;49.316;8.558;2024-03-29T02:10:01;98476.69;;;9.37;73.25
44457;BME280;30159;49.316;8.558;2024-03-29T02:12:28;98468.19;;;9.35;74.14
44457;BME280;30159;49.316;8.558;2024-03-29T02:14:55;98464.84;;;9.38;73.29
44457;BME280;30159;49.316;8.558;2024-03-29T02:17:24;98453.59;;;9.36;73.21
44457;BME280;30159;49.316;8.558;2024-03-29T02:19:51;98445.06;;;9.42;73.82
44457;BME280;30159;49.316;8.558;2024-03-29T02:22:18;98405.03;;;9.32;72.14
44457;BME280;30159;49.316;8.558;2024-03-29T02:24:50;98440.28;;;9.57;72.64
44457;BME280;30159;49.316;8.558;2024-03-29T02:27:16;98463.81;;;9.68;72.37
44457;BME280;30159;49.316;8.558;2024-03-29T02:29:43;98449.75;;;9.63;72.45
44457;BME280;30159;49.316;8.558;2024-03-29T02:32:10;98456.81;;;9.76;72.84
44457;BME280;30159;49.316;8.558;2024-03-29T02:34:36;98451.59;;;9.80;71.52
44457;BME280;30159;49.316;8.558;2024-03-29T02:37:03;98461.53;;;9.88;71.69
44457;BME280;30159;49.316;8.558;2024-03-29T02:39:31;98456.63;;;9.90;72.52
44457;BME280;30159;49.316;8.558;2024-03-29T02:41:59;98450.09;;;10.00;71.37
44457;BME280;30159;49.316;8.558;2024-03-29T02:44:25;98438.91;;;9.89;70.86
44457;BME280;30159;49.316;8.558;2024-03-29T02:46:52;98452.63;;;10.05;70.63
44457;BME280;30159;49.316;8.558;2024-03-29T02:49:19;98485.72;;;10.05;71.64
44457;BME280;30159;49.316;8.558;2024-03-29T02:51:44;98464.31;;;10.09;71.53
44457;BME280;30159;49.316;8.558;2024-03-29T02:54:11;98469.19;;;10.16;70.55
44457;BME280;30159;49.316;8.558;2024-03-29T02:56:36;98461.63;;;10.09;71.59
44457;BME280;30159;49.316;8.558;2024-03-29T02:59:05;98470.78;;;10.17;71.29
44457;BME280;30159;49.316;8.558;2024-03-29T03:01:30;98474.47;;;10.12;71.85
44457;BME280;30159;49.316;8.558;2024-03-29T03:03:57;98486.47;;;10.23;71.61
44457;BME280;30159;49.316;8.558;2024-03-29T03:06:22;98491.81;;;10.32;71.01
44457;BME280;30159;49.316;8.558;2024-03-29T03:08:49;98471.38;;;10.22;71.79
44457;BME280;30159;49.316;8.558;2024-03-29T03:11:33;98327.47;;;9.34;71.18
44457;BME280;30159;49.316;8.558;2024-03-29T03:14:00;98477.09;;;10.29;71.47
44457;BME280;30159;49.316;8.558;2024-03-29T03:16:27;98458.69;;;10.23;71.60
44457;BME280;30159;49.316;8.558;2024-03-29T03:18:53;98481.38;;;10.30;71.99
44457;BME280;30159;49.316;8.558;2024-03-29T03:21:20;98494.19;;;10.25;71.59
44457;BME280;30159;49.316;8.558;2024-03-29T03:23:46;98470.28;;;10.23;71.59
44457;BME280;30159;49.316;8.558;2024-03-29T03:26:12;98492.09;;;10.39;70.48
44457;BME280;30159;49.316;8.558;2024-03-29T03:28:38;98492.91;;;10.40;72.33
44457;BME280;30159;49.316;8.558;2024-03-29T03:31:05;98481.38;;;10.22;71.05
44457;BME280;30159;49.316;8.558;2024-03-29T03:33:33;98518.44;;;10.33;69.98
44457;BME280;30159;49.316;8.558;2024-03-29T03:36:00;98527.75;;;10.45;70.00
44457;BME280;30159;49.316;8.558;2024-03-29T03:38:26;98529.41;;;10.58;69.98
44457;BME280;30159;49.316;8.558;2024-03-29T03:40:52;98521.00;;;10.60;70.88
44457;BME280;30159;49.316;8.558;2024-03-29T03:43:18;98514.44;;;10.69;71.58
44457;BME280;30159;49.316;8.558;2024-03-29T03:45:45;98516.50;;;10.72;71.72
44457;BME280;30159;49.316;8.558;2024-03-29T03:48:10;98511.94;;;10.64;73.39
44457;BME280;30159;49.316;8.558;2024-03-29T03:50:38;98500.38;;;10.64;73.74
44457;BME280;30159;49.316;8.558;2024-03-29T03:53:04;98484.44;;;10.50;74.19
44457;BME280;30159;49.316;8.558;2024-03-29T03:55:31;98465.34;;;10.34;77.07
44457;BME280;30159;49.316;8.558;2024-03-29T03:58:00;98479.13;;;10.32;78.59
44457;BME280;30159;49.316;8.558;2024-03-29T04:00:27;98480.72;;;10.25;80.63
44457;BME280;30159;49.316;8.558;2024-03-29T04:02:52;98472.03;;;10.19;80.82
44457;BME280;30159;49.316;8.558;2024-03-29T04:05:20;98460.81;;;10.17;81.42
44457;BME280;30159;49.316;8.558;2024-03-29T04:07:47;98446.53;;;10.17;83.03
44457;BME280;30159;49.316;8.558;2024-03-29T04:10:14;98454.13;;;10.23;82.82
44457;BME280;30159;49.316;8.558;2024-03-29T04:12:40;98454.25;;;10.27;82.39
44457;BME280;30159;49.316;8.558;2024-03-29T04:15:07;98453.31;;;10.31;81.50
44457;BME280;30159;49.316;8.558;2024-03-29T04:17:33;98450.31;;;10.24;80.64
44457;BME280;30159;49.316;8.558;2024-03-29T04:19:59;98432.56;;;10.23;79.93
44457;BME280;30159;49.316;8.558;2024-03-29T04:22:27;98447.72;;;10.37;80.70
44457;BME280;30159;49.316;8.558;2024-03-29T04:24:55;98442.59;;;10.44;80.16
44457;BME280;30159;49.316;8.558;2024-03-29T04:27:21;98440.16;;;10.30;79.90
44457;BME280;30159;49.316;8.558;2024-03-29T04:29:50;98416.94;;;10.08;79.47
44457;BME280;30159;49.316;8.558;2024-03-29T04:32:16;98451.59;;;10.18;79.59
44457;BME280;30159;49.316;8.558;2024-03-29T04:34:43;98462.25;;;10.15;81.13
44457;BME280;30159;49.316;8.558;2024-03-29T04:37:11;98460.06;;;10.08;81.92
44457;BME280;30159;49.316;8.558;2024-03-29T04:39:37;98471.75;;;10.12;81.61
44457;BME280;30159;49.316;8.558;2024-03-29T04:42:05;98466.47;;;10.24;81.85
44457;BME280;30159;49.316;8.558;2024-03-29T04:44:32;98464.75;;;10.20;81.03
44457;BME280;30159;49.316;8.558;2024-03-29T04:46:59;98450.34;;;10.16;80.96
44457;BME280;30159;49.316;8.558;2024-03-29T04:49:26;98457.72;;;10.27;81.58
44457;BME280;30159;49.316;8.558;2024-03-29T04:51:58;98464.75;;;10.28;79.80
44457;BME280;30159;49.316;8.558;2024-03-29T04:54:25;98449.81;;;10.31;78.63
44457;BME280;30159;49.316;8.558;2024-03-29T04:56:52;98452.75;;;10.47;79.88
44457;BME280;30159;49.316;8.558;2024-03-29T04:59:20;98444.00;;;10.50;78.77
44457;BME280;30159;49.316;8.558;2024-03-29T05:01:47;98427.59;;;10.34;76.93
44457;BME280;30159;49.316;8.558;2024-03-29T05:04:15;98447.91;;;10.61;77.63
44457;BME280;30159;49.316;8.558;2024-03-29T05:06:46;98443.59;;;10.60;76.97
44457;BME280;30159;49.316;8.558;2024-03-29T05:09:12;98454.91;;;10.53;77.05
44457;BME280;30159;49.316;8.558;2024-03-29T05:11:39;98448.50;;;10.67;77.01
44457;BME280;30159;49.316;8.558;2024-03-29T05:14:06;98447.91;;;10.61;76.41
44457;BME280;30159;49.316;8.558;2024-03-29T05:16:34;98449.19;;;10.55;75.55
44457;BME280;30159;49.316;8.558;2024-03-29T05:19:00;98446.78;;;10.62;75.21
44457;BME280;30159;49.316;8.558;2024-03-29T05:21:27;98434.78;;;10.51;75.37
44457;BME280;30159;49.316;8.558;2024-03-29T05:23:54;98439.56;;;10.54;74.73
44457;BME280;30159;49.316;8.558;2024-03-29T05:26:20;98435.25;;;10.53;75.92
44457;BME280;30159;49.316;8.558;2024-03-29T05:28:47;98432.50;;;10.62;75.44
44457;BME280;30159;49.316;8.558;2024-03-29T05:31:14;98426.41;;;10.73;75.08
44457;BME280;30159;49.316;8.558;2024-03-29T05:33:42;98427.66;;;10.76;75.09
44457;BME280;30159;49.316;8.558;2024-03-29T05:36:10;98432.66;;;10.65;74.54
44457;BME280;30159;49.316;8.558;2024-03-29T05:38:38;98433.19;;;10.59;73.86
44457;BME280;30159;49.316;8.558;2024-03-29T05:41:05;98447.50;;;10.71;74.45
44457;BME280;30159;49.316;8.558;2024-03-29T05:43:32;98451.84;;;10.85;74.72
44457;BME280;30159;49.316;8.558;2024-03-29T05:45:58;98453.78;;;10.84;74.35
44457;BME280;30159;49.316;8.558;2024-03-29T05:48:26;98460.88;;;10.89;74.18
44457;BME280;30159;49.316;8.558;2024-03-29T05:50:54;98477.31;;;10.96;74.35
44457;BME280;30159;49.316;8.558;2024-03-29T05:53:21;98487.19;;;10.92;74.17
44457;BME280;30159;49.316;8.558;2024-03-29T05:55:47;98482.03;;;10.99;73.94
44457;BME280;30159;49.316;8.558;2024-03-29T05:58:14;98479.88;;;10.92;74.29
44457;BME280;30159;49.316;8.558;2024-03-29T06:00:43;98493.81;;;10.94;75.25
44457;BME280;30159;49.316;8.558;2024-03-29T06:03:09;98493.41;;;11.05;74.46
44457;BME280;30159;49.316;8.558;2024-03-29T06:05:36;98495.13;;;11.09;74.22
44457;BME280;30159;49.316;8.558;2024-03-29T06:08:05;98488.84;;;11.05;74.28
44457;BME280;30159;49.316;8.558;2024-03-29T06:10:31;98497.56;;;11.02;75.80
44457;BME280;30159;49.316;8.558;2024-03-29T06:12:58;98509.09;;;11.11;74.83
44457;BME280;30159;49.316;8.558;2024-03-29T06:15:32;98500.34;;;11.14;74.65
44457;BME280;30159;49.316;8.558;2024-03-29T06:18:16;98494.13;;;10.93;74.27
44457;BME280;30159;49.316;8.558;2024-03-29T06:20:44;98497.31;;;10.95;74.57
44457;BME280;30159;49.316;8.558;2024-03-29T06:23:12;98496.94;;;11.05;74.75
44457;BME280;30159;49.316;8.558;2024-03-29T06:25:42;98474.88;;;11.03;74.53
44457;BME280;30159;49.316;8.558;2024-03-29T06:28:08;98470.94;;;11.01;74.81
44457;BME280;30159;49.316;8.558;2024-03-29T06:30:35;98480.06;;;11.08;74.37
44457;BME280;30159;49.316;8.558;2024-03-29T06:33:02;98474.53;;;11.05;74.80
44457;BME280;30159;49.316;8.558;2024-03-29T06:35:29;98454.50;;;10.93;74.58
44457;BME280;30159;49.316;8.558;2024-03-29T06:37:56;98451.78;;;10.93;74.63
44457;BME280;30159;49.316;8.558;2024-03-29T06:40:24;98465.91;;;11.11;74.40
44457;BME280;30159;49.316;8.558;2024-03-29T06:42:51;98469.06;;;11.13;73.17
44457;BME280;30159;49.316;8.558;2024-03-29T06:45:18;98456.19;;;11.19;73.19
44457;BME280;30159;49.316;8.558;2024-03-29T06:47:45;98462.09;;;11.33;72.96
44457;BME280;30159;49.316;8.558;2024-03-29T06:50:11;98456.84;;;11.49;73.60
44457;BME280;30159;49.316;8.558;2024-03-29T06:52:38;98457.28;;;11.51;72.91
44457;BME280;30159;49.316;8.558;2024-03-29T06:55:05;98463.38;;;11.60;72.48
44457;BME280;30159;49.316;8.558;2024-03-29T06:57:33;98462.28;;;11.62;72.20
44457;BME280;30159;49.316;8.558;2024-03-29T07:00:01;98465.69;;;11.83;71.98
44457;BME280;30159;49.316;8.558;2024-03-29T07:02:28;98466.13;;;11.73;71.93
44457;BME280;30159;49.316;8.558;2024-03-29T07:04:55;98469.44;;;11.91;72.03
44457;BME280;30159;49.316;8.558;2024-03-29T07:07:21;98464.78;;;11.79;70.76
44457;BME280;30159;49.316;8.558;2024-03-29T07:09:48;98478.78;;;11.93;70.79
44457;BME280;30159;49.316;8.558;2024-03-29T07:12:15;98496.59;;;12.07;69.74
44457;BME280;30159;49.316;8.558;2024-03-29T07:14:43;98487.16;;;12.37;69.88
44457;BME280;30159;49.316;8.558;2024-03-29T07:17:09;98494.47;;;12.49;69.35
44457;BME280;30159;49.316;8.558;2024-03-29T07:19:36;98484.41;;;12.74;68.73
44457;BME280;30159;49.316;8.558;2024-03-29T07:22:03;98492.75;;;12.81;69.01
44457;BME280;30159;49.316;8.558;2024-03-29T07:24:30;98490.94;;;12.85;68.41
44457;BME280;30159;49.316;8.558;2024-03-29T07:26:57;98492.00;;;13.09;69.62
44457;BME280;30159;49.316;8.558;2024-03-29T07:29:23;98499.94;;;13.02;69.20
44457;BME280;30159;49.316;8.558;2024-03-29T07:31:51;98509.47;;;13.12;67.89
44457;BME280;30159;49.316;8.558;2024-03-29T07:34:19;98498.50;;;12.92;68.24
44457;BME280;30159;49.316;8.558;2024-03-29T07:36:45;98508.09;;;12.90;67.40
44457;BME280;30159;49.316;8.558;2024-03-29T07:39:12;98501.78;;;12.85;68.45
44457;BME280;30159;49.316;8.558;2024-03-29T07:41:39;98504.94;;;12.88;69.12
44457;BME280;30159;49.316;8.558;2024-03-29T07:44:05;98518.91;;;12.90;69.33
44457;BME280;30159;49.316;8.558;2024-03-29T07:46:34;98520.94;;;12.80;71.29
44457;BME280;30159;49.316;8.558;2024-03-29T07:49:03;98493.47;;;12.66;72.48
44457;BME280;30159;49.316;8.558;2024-03-29T07:51:30;98515.31;;;12.73;76.07
44457;BME280;30159;49.316;8.558;2024-03-29T07:53:56;98521.84;;;12.60;75.73
44457;BME280;30159;49.316;8.558;2024-03-29T07:56:24;98516.22;;;12.53;77.94
44457;BME280;30159;49.316;8.558;2024-03-29T07:58:51;98501.81;;;12.49;79.54
44457;BME280;30159;49.316;8.558;2024-03-29T08:01:19;98509.47;;;12.59;81.47
44457;BME280;30159;49.316;8.558;2024-03-29T08:03:46;98519.59;;;12.74;79.71
44457;BME280;30159;49.316;8.558;2024-03-29T08:06:14;98509.03;;;12.57;77.80
44457;BME280;30159;49.316;8.558;2024-03-29T08:08:43;98518.91;;;12.65;78.74
44457;BME280;30159;49.316;8.558;2024-03-29T08:11:10;98516.09;;;12.49;81.93
44457;BME280;30159;49.316;8.558;2024-03-29T08:13:37;98527.16;;;12.44;80.44
44457;BME280;30159;49.316;8.558;2024-03-29T08:16:04;98524.34;;;12.40;84.11
44457;BME280;30159;49.316;8.558;2024-03-29T08:18:31;98556.66;;;12.12;86.79
44457;BME280;30159;49.316;8.558;2024-03-29T08:20:58;98547.16;;;12.06;87.81
44457;BME280;30159;49.316;8.558;2024-03-29T08:23:26;98540.59;;;11.95;90.61
44457;BME280;30159;49.316;8.558;2024-03-29T08:25:53;98562.75;;;11.88;93.13
44457;BME280;30159;49.316;8.558;2024-03-29T08:28:21;98576.06;;;11.72;96.14
44457;BME280;30159;49.316;8.558;2024-03-29T08:30:57;98584.63;;;11.74;97.63
44457;BME280;30159;49.316;8.558;2024-03-29T08:33:24;98582.72;;;11.75;95.91
44457;BME280;30159;49.316;8.558;2024-03-29T08:35:50;98593.34;;;11.59;98.95
44457;BME280;30159;49.316;8.558;2024-03-29T08:38:17;98597.69;;;11.51;100.00
44457;BME280;30159;49.316;8.558;2024-03-29T08:40:45;98592.00;;;11.65;99.85
44457;BME280;30159;49.316;8.558;2024-03-29T08:43:13;98592.63;;;11.50;100.00
44457;BME280;30159;49.316;8.558;2024-03-29T08:45:41;98590.97;;;11.57;100.00
44457;BME280;30159;49.316;8.558;2024-03-29T08:48:08;98596.38;;;11.57;100.00
44457;BME280;30159;49.316;8.558;2024-03-29T08:50:34;98612.97;;;11.26;100.00
44457;BME280;30159;49.316;8.558;2024-03-29T08:53:01;98603.69;;;11.36;100.00
44457;BME280;30159;49.316;8.558;2024-03-29T08:55:29;98614.31;;;11.11;100.00
44457;BME280;30159;49.316;8.558;2024-03-29T08:57:57;98611.78;;;11.36;100.00
44457;BME280;30159;49.316;8.558;2024-03-29T09:00:24;98622.03;;;11.22;100.00
44457;BME280;30159;49.316;8.558;2024-03-29T09:02:51;98632.84;;;11.43;100.00
44457;BME280;30159;49.316;8.558;2024-03-29T09:05:18;98650.25;;;11.33;100.00
44457;BME280;30159;49.316;8.558;2024-03-29T09:07:45;98654.63;;;11.16;100.00
44457;BME280;30159;49.316;8.558;2024-03-29T09:10:11;98616.97;;;10.90;100.00
44457;BME280;30159;49.316;8.558;2024-03-29T09:12:38;98667.06;;;11.30;100.00
44457;BME280;30159;49.316;8.558;2024-03-29T09:15:07;98667.50;;;11.62;100.00
44457;BME280;30159;49.316;8.558;2024-03-29T09:17:38;98643.66;;;11.64;100.00
44457;BME280;30159;49.316;8.558;2024-03-29T09:20:06;98670.69;;;12.06;100.00
44457;BME280;30159;49.316;8.558;2024-03-29T09:22:33;98674.56;;;12.17;100.00
44457;BME280;30159;49.316;8.558;2024-03-29T09:25:00;98680.47;;;12.31;100.00
44457;BME280;30159;49.316;8.558;2024-03-29T09:27:27;98675.25;;;12.59;100.00
44457;BME280;30159;49.316;8.558;2024-03-29T09:29:54;98699.06;;;12.91;100.00
44457;BME280;30159;49.316;8.558;2024-03-29T09:32:22;98693.09;;;12.73;100.00
44457;BME280;30159;49.316;8.558;2024-03-29T09:34:49;98709.81;;;12.54;100.00
44457;BME280;30159;49.316;8.558;2024-03-29T09:37:16;98705.53;;;12.53;100.00
44457;BME280;30159;49.316;8.558;2024-03-29T09:39:43;98694.16;;;12.47;100.00
44457;BME280;30159;49.316;8.558;2024-03-29T09:42:15;98710.25;;;12.56;100.00
44457;BME280;30159;49.316;8.558;2024-03-29T09:44:43;98700.44;;;12.84;100.00
44457;BME280;30159;49.316;8.558;2024-03-29T09:47:14;98696.16;;;13.08;100.00
44457;BME280;30159;49.316;8.558;2024-03-29T09:49:44;98687.66;;;13.59;100.00
44457;BME280;30159;49.316;8.558;2024-03-29T09:52:13;98701.69;;;14.01;100.00
44457;BME280;30159;49.316;8.558;2024-03-29T09:54:40;98699.44;;;14.47;100.00
44457;BME280;30159;49.316;8.558;2024-03-29T09:57:07;98698.56;;;14.56;100.00
44457;BME280;30159;49.316;8.558;2024-03-29T09:59:34;98692.41;;;14.59;98.62
44457;BME280;30159;49.316;8.558;2024-03-29T10:02:04;98692.03;;;14.16;100.00
44457;BME280;30159;49.316;8.558;2024-03-29T10:04:36;98686.59;;;14.44;100.00
44457;BME280;30159;49.316;8.558;2024-03-29T10:07:04;98689.19;;;14.25;100.00
44457;BME280;30159;49.316;8.558;2024-03-29T10:09:31;98690.63;;;14.50;100.00
44457;BME280;30159;49.316;8.558;2024-03-29T10:11:59;98696.66;;;14.88;100.00
44457;BME280;30159;49.316;8.558;2024-03-29T10:14:25;98692.34;;;15.34;92.44
44457;BME280;30159;49.316;8.558;2024-03-29T10:16:52;98687.53;;;15.28;96.97
44457;BME280;30159;49.316;8.558;2024-03-29T10:19:20;98677.09;;;15.65;94.41
44457;BME280;30159;49.316;8.558;2024-03-29T10:21:47;98682.22;;;15.86;92.79
44457;BME280;30159;49.316;8.558;2024-03-29T10:24:16;98702.47;;;16.08;94.38
44457;BME280;30159;49.316;8.558;2024-03-29T10:26:43;98680.25;;;16.45;91.40
44457;BME280;30159;49.316;8.558;2024-03-29T10:29:10;98675.69;;;16.49;86.99
44457;BME280;30159;49.316;8.558;2024-03-29T10:31:37;98686.16;;;16.28;89.37
44457;BME280;30159;49.316;8.558;2024-03-29T10:34:04;98677.50;;;16.02;92.42
44457;BME280;30159;49.316;8.558;2024-03-29T10:36:31;98672.34;;;16.59;90.77
44457;BME280;30159;49.316;8.558;2024-03-29T10:39:02;98681.47;;;16.90;86.09
44457;BME280;30159;49.316;8.558;2024-03-29T10:41:31;98685.50;;;16.77;84.80
44457;BME280;30159;49.316;8.558;2024-03-29T10:44:01;98671.09;;;16.76;86.71
44457;BME280;30159;49.316;8.558;2024-03-29T10:46:29;98663.94;;;16.45;85.25
44457;BME280;30159;49.316;8.558;2024-03-29T10:48:57;98654.75;;;16.53;85.51
44457;BME280;30159;49.316;8.558;2024-03-29T10:51:24;98642.56;;;16.24;87.02
44457;BME280;30159;49.316;8.558;2024-03-29T10:53:51;98636.59;;;15.76;93.66
44457;BME280;30159;49.316;8.558;2024-03-29T10:56:21;98635.56;;;15.65;97.04
44457;BME280;30159;49.316;8.558;2024-03-29T10:58:56;98637.38;;;15.76;95.09
44457;BME280;30159;49.316;8.558;2024-03-29T11:01:23;98604.16;;;15.67;95.35
44457;BME280;30159;49.316;8.558;2024-03-29T11:03:54;98628.06;;;15.77;94.92
44457;BME280;30159;49.316;8.558;2024-03-29T11:06:26;98610.66;;;15.63;95.51
44457;BME280;30159;49.316;8.558;2024-03-29T11:08:56;98607.41;;;15.57;98.80
44457;BME280;30159;49.316;8.558;2024-03-29T11:11:24;98592.84;;;15.65;100.00
44457;BME280;30159;49.316;8.558;2024-03-29T11:14:02;98579.34;;;15.69;99.23
44457;BME280;30159;49.316;8.558;2024-03-29T11:16:29;98583.31;;;15.71;100.00
44457;BME280;30159;49.316;8.558;2024-03-29T11:18:56;98587.13;;;16.09;100.00
44457;BME280;30159;49.316;8.558;2024-03-29T11:21:24;98586.84;;;16.37;98.51
44457;BME280;30159;49.316;8.558;2024-03-29T11:23:54;98572.69;;;16.78;94.82
44457;BME280;30159;49.316;8.558;2024-03-29T11:26:23;98572.69;;;17.27;95.88
44457;BME280;30159;49.316;8.558;2024-03-29T11:28:52;98581.91;;;17.49;91.68
44457;BME280;30159;49.316;8.558;2024-03-29T11:31:23;98568.78;;;17.59;90.87
44457;BME280;30159;49.316;8.558;2024-03-29T11:33:51;98555.91;;;17.25;90.97
44457;BME280;30159;49.316;8.558;2024-03-29T11:36:20;98564.22;;;17.36;93.47
44457;BME280;30159;49.316;8.558;2024-03-29T11:38:50;98566.38;;;17.23;90.76
44457;BME280;30159;49.316;8.558;2024-03-29T11:41:18;98561.72;;;17.24;89.71
44457;BME280;30159;49.316;8.558;2024-03-29T11:43:47;98569.53;;;17.56;93.05
44457;BME280;30159;49.316;8.558;2024-03-29T11:46:14;98578.50;;;17.60;92.55
44457;BME280;30159;49.316;8.558;2024-03-29T11:48:42;98593.41;;;17.66;91.77
44457;BME280;30159;49.316;8.558;2024-03-29T11:51:12;98591.19;;;17.45;93.46
44457;BME280;30159;49.316;8.558;2024-03-29T11:53:40;98597.56;;;17.26;93.46
44457;BME280;30159;49.316;8.558;2024-03-29T11:56:07;98601.50;;;17.02;95.09
44457;BME280;30159;49.316;8.558;2024-03-29T11:58:34;98602.75;;;16.81;97.42
44457;BME280;30159;49.316;8.558;2024-03-29T12:01:01;98604.91;;;16.49;99.25
44457;BME280;30159;49.316;8.558;2024-03-29T12:03:30;98601.41;;;16.26;100.00
44457;BME280;30159;49.316;8.558;2024-03-29T12:05:58;98607.97;;;16.25;100.00
44457;BME280;30159;49.316;8.558;2024-03-29T12:08:28;98610.72;;;16.05;100.00
44457;BME280;30159;49.316;8.558;2024-03-29T12:10:57;98622.41;;;15.86;100.00
44457;BME280;30159;49.316;8.558;2024-03-29T12:13:23;98634.47;;;15.69;100.00
44457;BME280;30159;49.316;8.558;2024-03-29T12:15:50;98643.63;;;15.61;100.00
44457;BME280;30159;49.316;8.558;2024-03-29T12:18:19;98645.69;;;15.48;100.00
44457;BME280;30159;49.316;8.558;2024-03-29T12:20:47;98650.88;;;15.37;100.00
44457;BME280;30159;49.316;8.558;2024-03-29T12:23:17;98641.59;;;15.38;100.00
44457;BME280;30159;49.316;8.558;2024-03-29T12:25:44;98638.03;;;15.54;100.00
44457;BME280;30159;49.316;8.558;2024-03-29T12:28:12;98643.63;;;15.61;100.00
44457;BME280;30159;49.316;8.558;2024-03-29T12:30:40;98646.63;;;15.56;100.00
44457;BME280;30159;49.316;8.558;2024-03-29T12:33:08;98634.53;;;15.18;100.00
44457;BME280;30159;49.316;8.558;2024-03-29T12:35:36;98660.97;;;15.21;100.00
44457;BME280;30159;49.316;8.558;2024-03-29T12:38:03;98662.06;;;15.01;100.00
44457;BME280;30159;49.316;8.558;2024-03-29T12:40:34;98651.00;;;15.25;100.00
44457;BME280;30159;49.316;8.558;2024-03-29T12:43:03;98645.78;;;15.36;100.00
44457;BME280;30159;49.316;8.558;2024-03-29T12:45:31;98654.63;;;15.49;100.00
44457;BME280;30159;49.316;8.558;2024-03-29T12:47:57;98665.88;;;15.67;100.00
44457;BME280;30159;49.316;8.558;2024-03-29T12:50:26;98652.28;;;15.31;100.00
44457;BME280;30159;49.316;8.558;2024-03-29T12:52:54;98670.66;;;15.38;100.00
44457;BME280;30159;49.316;8.558;2024-03-29T12:55:21;98678.06;;;15.06;100.00
44457;BME280;30159;49.316;8.558;2024-03-29T12:57:49;98689.22;;;14.41;100.00
44457;BME280;30159;49.316;8.558;2024-03-29T13:00:18;98698.19;;;14.01;100.00